Time;durP1;ratioP1;P1;durP2;ratioP2;P2;SDS_P1;SDS_P2;PMS_P1;PMS_P2;Temp;Humidity;BMP_temperature;BMP_pressure;BME280_temperature;BME280_humidity;BME280_pressure;Samples;Min_cycle;Max_cycle;Signal;HPM_P1;HPM_P2
2022/02/19 00:00:50;;;;;;;4.27;1.70;;;9.50;99.90;;;;;;5090382;28;20984;-50
2022/02/19 00:03:18;;;;;;;3.73;1.30;;;9.50;99.90;;;;;;5088981;28;20433;-53
2022/02/19 00:05:47;;;;;;;3.83;1.60;;;9.50;99.90;;;;;;5093373;28;20439;-52
2022/02/19 00:08:15;;;;;;;6.93;2.80;;;9.50;99.90;;;;;;5089605;28;20923;-54
2022/02/19 00:10:45;;;;;;;4.93;1.93;;;9.50;99.90;;;;;;5109223;28;20573;-54
2022/02/19 00:13:13;;;;;;;5.20;1.90;;;9.50;99.90;;;;;;5108931;28;20443;-53
2022/02/19 00:15:43;;;;;;;3.63;1.40;;;9.50;99.90;;;;;;5112944;28;20464;-54
2022/02/19 00:18:11;;;;;;;5.23;1.60;;;9.50;99.90;;;;;;5096622;28;20851;-50
2022/02/19 00:20:43;;;;;;;4.17;2.00;;;9.50;99.90;;;;;;5097383;28;20472;-52
2022/02/19 00:23:12;;;;;;;4.20;1.70;;;9.50;99.90;;;;;;5111951;28;20527;-52
2022/02/19 00:25:41;;;;;;;3.37;1.80;;;9.50;99.90;;;;;;5092511;28;20444;-52
2022/02/19 00:28:10;;;;;;;5.07;2.07;;;9.50;99.90;;;;;;5092948;28;20425;-53
2022/02/19 00:30:38;;;;;;;4.23;1.70;;;9.50;99.90;;;;;;5081394;28;20987;-52
2022/02/19 00:33:07;;;;;;;3.20;1.40;;;9.50;99.90;;;;;;5094675;28;20460;-52
2022/02/19 00:35:35;;;;;;;5.10;1.57;;;9.50;99.90;;;;;;5086080;28;20836;-50
2022/02/19 00:38:04;;;;;;;4.57;1.53;;;9.50;99.90;;;;;;5112817;28;20526;-54
2022/02/19 00:40:32;;;;;;;3.57;1.50;;;9.50;99.90;;;;;;5112268;28;20472;-53
2022/02/19 00:43:02;;;;;;;3.70;1.50;;;9.40;99.90;;;;;;5096770;28;20445;-52
2022/02/19 00:45:31;;;;;;;5.20;1.47;;;9.40;99.90;;;;;;5075027;28;20555;-53
2022/02/19 00:48:02;;;;;;;5.23;2.00;;;9.50;99.90;;;;;;5111637;28;20438;-52
2022/02/19 00:50:31;;;;;;;8.20;1.60;;;9.40;99.90;;;;;;5077372;28;20479;-51
2022/02/19 00:53:00;;;;;;;2.30;1.27;;;9.40;99.90;;;;;;5107828;28;20942;-51
2022/02/19 00:55:28;;;;;;;2.40;1.30;;;9.40;99.90;;;;;;5091961;28;20476;-54
2022/02/19 00:57:57;;;;;;;5.80;1.93;;;9.40;99.90;;;;;;5079363;28;20487;-52
2022/02/19 01:00:26;;;;;;;4.00;1.00;;;9.40;99.90;;;;;;5089597;28;21009;-50
2022/02/19 01:03:08;;;;;;;2.63;1.40;;;9.40;99.90;;;;;;5074215;28;20447;-54
2022/02/19 01:05:38;;;;;;;5.07;1.90;;;9.40;99.90;;;;;;5078891;28;20492;-55
2022/02/19 01:08:07;;;;;;;3.10;1.40;;;9.40;99.90;;;;;;5091654;28;20422;-51
2022/02/19 01:10:37;;;;;;;4.80;1.40;;;9.40;99.90;;;;;;5081668;28;20476;-52
2022/02/19 01:13:05;;;;;;;2.47;1.43;;;9.40;99.90;;;;;;5103779;28;20444;-53
2022/02/19 01:15:33;;;;;;;6.03;2.67;;;9.40;99.90;;;;;;5080094;28;20471;-52
2022/02/19 01:18:01;;;;;;;4.43;2.20;;;9.40;99.90;;;;;;5112311;28;20463;-50
2022/02/19 01:20:29;;;;;;;6.77;1.93;;;9.40;99.90;;;;;;5095933;28;21071;-52
2022/02/19 01:22:59;;;;;;;5.37;1.63;;;9.40;99.90;;;;;;5091815;28;20451;-52
2022/02/19 01:25:27;;;;;;;8.50;2.03;;;9.40;99.90;;;;;;5071703;28;20507;-52
2022/02/19 01:27:55;;;;;;;2.73;1.23;;;9.40;99.90;;;;;;5073858;28;20988;-50
2022/02/19 01:30:24;;;;;;;7.10;1.67;;;9.40;99.90;;;;;;5105272;28;20487;-53
2022/02/19 01:32:58;;;;;;;5.43;1.50;;;9.40;99.90;;;;;;5112845;28;20423;-51
2022/02/19 01:35:46;;;;;;;5.40;1.30;;;9.40;99.90;;;;;;5077602;28;20480;-51
2022/02/19 01:38:34;;;;;;;2.40;1.03;;;9.40;99.90;;;;;;5076161;28;20524;-50
2022/02/19 01:41:22;;;;;;;3.93;1.60;;;9.40;99.90;;;;;;5090509;28;20458;-51
2022/02/19 01:44:12;;;;;;;5.40;1.25;;;9.30;99.90;;;;;;5101300;28;20469;-52
2022/02/19 01:46:58;;;;;;;5.97;2.60;;;9.30;99.90;;;;;;5080372;28;20309;-53
2022/02/19 01:49:27;;;;;;;2.73;1.03;;;9.40;99.90;;;;;;5078748;28;20928;-53
2022/02/19 01:51:56;;;;;;;4.70;1.30;;;9.30;99.90;;;;;;5074174;28;20461;-53
2022/02/19 01:54:28;;;;;;;4.90;1.60;;;9.30;99.90;;;;;;5091286;28;20571;-53
2022/02/19 01:57:09;;;;;;;6.60;1.93;;;9.30;99.90;;;;;;5089428;28;20435;-53
2022/02/19 01:59:59;;;;;;;3.90;1.60;;;9.30;99.90;;;;;;5100141;28;20563;-50
2022/02/19 02:02:49;;;;;;;3.40;1.63;;;9.30;99.90;;;;;;5077382;28;20440;-51
2022/02/19 02:05:38;;;;;;;4.43;1.88;;;9.30;99.90;;;;;;5068200;28;20493;-55
2022/02/19 02:08:08;;;;;;;2.90;1.47;;;9.30;99.90;;;;;;5090658;28;20543;-50
2022/02/19 02:10:39;;;;;;;3.13;1.30;;;9.30;99.90;;;;;;5083757;28;20457;-52
2022/02/19 02:13:15;;;;;;;5.05;1.45;;;9.30;99.90;;;;;;5074298;28;20425;-52
2022/02/19 02:15:44;;;;;;;2.63;1.40;;;9.30;99.90;;;;;;5079681;28;20232;-54
2022/02/19 02:18:25;;;;;;;3.03;1.40;;;9.30;99.90;;;;;;5091872;28;20450;-51
2022/02/19 02:20:54;;;;;;;4.50;1.60;;;9.30;99.90;;;;;;5100884;28;20483;-55
2022/02/19 02:23:24;;;;;;;3.40;1.30;;;9.30;99.90;;;;;;5092864;28;20436;-51
2022/02/19 02:26:01;;;;;;;5.73;1.50;;;9.30;99.90;;;;;;5102797;28;20437;-53
2022/02/19 02:28:29;;;;;;;4.53;1.63;;;9.30;99.90;;;;;;5091947;28;20444;-51
2022/02/19 02:31:03;;;;;;;3.47;1.60;;;9.30;99.90;;;;;;5092953;28;20227;-50
2022/02/19 02:33:31;;;;;;;1.97;1.20;;;9.30;99.90;;;;;;5089984;28;20461;-54
2022/02/19 02:36:08;;;;;;;6.70;2.10;;;9.30;99.90;;;;;;5082092;28;20532;-50
2022/02/19 02:38:45;;;;;;;8.13;1.30;;;9.30;99.90;;;;;;5092094;28;20505;-52
2022/02/19 02:41:32;;;;;;;2.30;1.13;;;9.20;99.90;;;;;;5094678;28;20463;-51
2022/02/19 02:44:07;;;;;;;4.03;1.30;;;9.20;99.90;;;;;;5097912;28;20559;-55
2022/02/19 02:46:35;;;;;;;4.00;1.90;;;9.30;99.90;;;;;;5088338;28;20437;-52
2022/02/19 02:49:07;;;;;;;3.13;1.30;;;9.20;99.90;;;;;;5070132;28;20221;-54
2022/02/19 02:51:35;;;;;;;4.20;1.10;;;9.30;99.90;;;;;;5086665;28;20463;-54
2022/02/19 02:54:04;;;;;;;4.13;1.20;;;9.20;99.90;;;;;;5070293;28;20828;-53
2022/02/19 02:56:34;;;;;;;2.50;1.00;;;9.20;99.90;;;;;;5070771;28;20464;-54
2022/02/19 02:59:02;;;;;;;3.70;1.40;;;9.20;99.90;;;;;;5074729;28;20534;-51
2022/02/19 03:01:30;;;;;;;4.77;1.57;;;9.20;99.90;;;;;;5071296;28;20474;-51
2022/02/19 03:04:02;;;;;;;3.60;1.50;;;9.20;99.90;;;;;;5069562;28;20474;-52
2022/02/19 03:06:31;;;;;;;5.30;1.33;;;9.20;99.90;;;;;;5087300;28;20447;-49
2022/02/19 03:08:59;;;;;;;2.33;1.67;;;9.20;99.90;;;;;;5088499;28;20857;-55
2022/02/19 03:11:35;;;;;;;4.80;1.90;;;9.20;99.90;;;;;;5070940;28;20550;-51
2022/02/19 03:14:05;;;;;;;4.30;1.55;;;9.20;99.90;;;;;;5070041;28;20489;-53
2022/02/19 03:16:33;;;;;;;4.10;1.10;;;9.20;99.90;;;;;;5071119;28;20256;-50
2022/02/19 03:19:02;;;;;;;5.60;1.40;;;9.20;99.90;;;;;;5088771;28;21013;-52
2022/02/19 03:21:30;;;;;;;4.20;1.70;;;9.20;99.90;;;;;;5072758;28;20509;-52
2022/02/19 03:23:58;;;;;;;2.30;1.47;;;9.20;99.90;;;;;;5089183;28;20502;-53
2022/02/19 03:26:26;;;;;;;3.30;1.10;;;9.20;99.90;;;;;;5080765;28;20518;-51
2022/02/19 03:29:02;;;;;;;1.60;1.10;;;9.20;99.90;;;;;;5070392;28;20493;-53
2022/02/19 03:31:34;;;;;;;3.07;1.30;;;9.20;99.90;;;;;;5082823;28;20467;-55
2022/02/19 03:34:17;;;;;;;2.92;1.33;;;9.10;99.90;;;;;;5102936;28;20498;-51
2022/02/19 03:36:47;;;;;;;3.80;0.77;;;9.10;99.90;;;;;;5070699;28;20206;-50
2022/02/19 03:39:34;;;;;;;3.87;1.50;;;9.10;99.90;;;;;;5092367;28;20471;-52
2022/02/19 03:42:03;;;;;;;1.37;1.07;;;9.10;99.90;;;;;;5079675;28;20497;-51
2022/02/19 03:44:32;;;;;;;2.47;1.10;;;9.10;99.90;;;;;;5087764;28;20491;-52
2022/02/19 03:47:10;;;;;;;2.80;0.97;;;9.10;99.90;;;;;;5070304;28;20524;-50
2022/02/19 03:50:02;;;;;;;2.93;0.70;;;9.10;99.90;;;;;;5077097;28;20525;-52
2022/02/19 03:52:30;;;;;;;3.90;1.40;;;9.10;99.90;;;;;;5107661;28;20865;-52
2022/02/19 03:54:58;;;;;;;3.13;1.37;;;9.10;99.90;;;;;;5088984;28;20462;-52
2022/02/19 03:57:26;;;;;;;1.90;0.97;;;9.10;99.90;;;;;;5090265;28;20463;-51
2022/02/19 03:59:58;;;;;;;1.20;1.00;;;9.10;99.90;;;;;;5089323;28;20472;-53
2022/02/19 04:02:26;;;;;;;1.80;1.07;;;9.10;99.90;;;;;;5106012;28;20527;-55
2022/02/19 04:04:56;;;;;;;4.93;1.97;;;9.10;99.90;;;;;;5078442;28;20487;-51
2022/02/19 04:07:25;;;;;;;4.43;1.10;;;9.10;99.90;;;;;;5072533;28;21070;-52
2022/02/19 04:10:01;;;;;;;2.00;0.90;;;9.10;99.90;;;;;;5070105;28;21071;-55
2022/02/19 04:12:31;;;;;;;3.38;1.63;;;9.10;99.90;;;;;;5087777;28;20452;-53
2022/02/19 04:15:01;;;;;;;2.97;1.40;;;9.10;99.90;;;;;;5070542;28;20215;-53
2022/02/19 04:17:30;;;;;;;2.73;1.27;;;9.10;99.90;;;;;;5088335;28;21093;-50
2022/02/19 04:19:59;;;;;;;6.83;1.23;;;9.00;99.90;;;;;;5089229;28;20479;-52
2022/02/19 04:22:28;;;;;;;2.63;1.10;;;9.00;99.90;;;;;;5072311;28;20809;-52
2022/02/19 04:24:56;;;;;;;2.33;0.90;;;9.00;99.90;;;;;;5090489;28;20471;-52
2022/02/19 04:27:29;;;;;;;2.47;1.40;;;9.00;99.90;;;;;;5089563;28;20585;-53
2022/02/19 04:29:58;;;;;;;3.80;1.47;;;9.10;99.90;;;;;;5090119;28;20221;-55
2022/02/19 04:32:28;;;;;;;3.93;1.60;;;9.00;99.90;;;;;;5090681;28;20464;-53
2022/02/19 04:35:01;;;;;;;3.40;1.50;;;9.00;99.90;;;;;;5074810;28;20533;-51
2022/02/19 04:37:35;;;;;;;2.10;0.87;;;9.00;99.90;;;;;;5086746;28;20467;-51
2022/02/19 04:40:07;;;;;;;3.17;1.27;;;9.00;99.90;;;;;;5087644;28;20893;-52
2022/02/19 04:42:39;;;;;;;1.30;0.85;;;9.00;99.90;;;;;;5071114;28;20494;-55
2022/02/19 04:45:16;;;;;;;4.07;1.20;;;9.00;99.90;;;;;;5086805;28;20304;-48
2022/02/19 04:47:53;;;;;;;3.27;1.27;;;9.00;99.90;;;;;;5069850;28;20187;-54
2022/02/19 04:50:22;;;;;;;3.72;1.27;;;9.00;99.90;;;;;;5074203;28;20985;-54
2022/02/19 04:52:54;;;;;;;3.33;1.53;;;9.00;99.90;;;;;;5088211;28;20191;-54
2022/02/19 04:55:23;;;;;;;2.10;0.85;;;9.00;99.90;;;;;;5074190;28;20556;-50
2022/02/19 04:57:55;;;;;;;4.68;1.42;;;9.00;99.90;;;;;;5086998;28;20218;-51
2022/02/19 05:00:23;;;;;;;4.03;1.50;;;9.00;99.90;;;;;;5070803;28;20219;-51
2022/02/19 05:03:15;;;;;;;2.45;1.08;;;9.00;99.90;;;;;;5109842;28;20435;-54
2022/02/19 05:05:52;;;;;;;3.40;1.30;;;9.00;99.90;;;;;;5074809;28;20232;-51
2022/02/19 05:08:21;;;;;;;2.30;0.90;;;9.00;99.90;;;;;;5073264;28;20527;-52
2022/02/19 05:10:50;;;;;;;5.03;1.00;;;8.90;99.90;;;;;;5073030;28;20512;-54
2022/02/19 05:13:29;;;;;;;2.87;1.10;;;8.90;99.90;;;;;;5091812;28;20197;-50
2022/02/19 05:15:58;;;;;;;3.43;1.10;;;9.00;99.90;;;;;;5089522;28;20836;-54
2022/02/19 05:18:48;;;;;;;2.42;1.40;;;8.90;99.90;;;;;;5110186;28;20585;-54
2022/02/19 05:21:16;;;;;;;2.80;1.00;;;8.90;99.90;;;;;;5072713;28;20565;-53
2022/02/19 05:23:50;;;;;;;2.13;1.00;;;8.90;99.90;;;;;;5077816;28;20462;-54
2022/02/19 05:26:21;;;;;;;3.77;1.27;;;8.90;99.90;;;;;;5074212;28;20201;-53
2022/02/19 05:28:50;;;;;;;3.17;1.07;;;8.90;99.90;;;;;;5091128;28;20491;-51
2022/02/19 05:31:19;;;;;;;2.00;1.10;;;8.90;99.90;;;;;;5073797;28;20453;-51
2022/02/19 05:34:05;;;;;;;3.30;1.27;;;8.90;99.90;;;;;;5101499;28;20517;-54
2022/02/19 05:36:34;;;;;;;4.28;1.17;;;8.90;99.90;;;;;;5073427;28;20464;-50
2022/02/19 05:39:04;;;;;;;2.05;1.30;;;8.90;99.90;;;;;;5072914;28;20211;-52
2022/02/19 05:41:36;;;;;;;3.33;1.03;;;8.90;99.90;;;;;;5091026;28;20274;-52
2022/02/19 05:44:05;;;;;;;1.95;1.00;;;8.90;99.90;;;;;;5092159;28;20866;-52
2022/02/19 05:46:36;;;;;;;4.95;1.45;;;8.90;99.90;;;;;;5073065;28;20249;-55
2022/02/19 05:49:06;;;;;;;2.80;0.88;;;8.90;99.90;;;;;;5090479;28;20689;-51
2022/02/19 05:51:57;;;;;;;2.93;1.13;;;8.90;99.90;;;;;;5088107;28;20188;-50
2022/02/19 05:54:32;;;;;;;2.65;1.25;;;8.90;99.90;;;;;;5075127;28;20565;-52
2022/02/19 05:57:12;;;;;;;5.53;1.42;;;8.90;99.90;;;;;;5092206;28;20296;-52
2022/02/19 05:59:41;;;;;;;4.82;1.10;;;8.90;99.90;;;;;;5088125;28;20217;-51
2022/02/19 06:02:12;;;;;;;3.00;1.30;;;8.90;99.90;;;;;;5089595;28;20552;-52
2022/02/19 06:04:42;;;;;;;2.60;1.30;;;8.80;99.90;;;;;;5101879;28;20207;-51
2022/02/19 06:07:13;;;;;;;6.03;1.20;;;8.80;99.90;;;;;;5079062;28;20432;-51
2022/02/19 06:09:41;;;;;;;2.58;1.10;;;8.90;99.90;;;;;;5088455;28;20976;-52
2022/02/19 06:12:11;;;;;;;1.65;0.65;;;8.80;99.90;;;;;;5089396;28;20751;-53
2022/02/19 06:14:52;;;;;;;2.40;0.87;;;8.80;99.90;;;;;;5077997;28;20296;-53
2022/02/19 06:17:26;;;;;;;3.23;1.20;;;8.80;99.90;;;;;;5110610;28;21024;-51
2022/02/19 06:19:58;;;;;;;1.60;0.98;;;8.80;99.90;;;;;;5087534;28;20514;-52
2022/02/19 06:22:27;;;;;;;4.47;1.27;;;8.80;99.90;;;;;;5087063;28;20189;-50
2022/02/19 06:24:55;;;;;;;2.05;1.00;;;8.80;99.90;;;;;;5091786;28;20486;-50
2022/02/19 06:27:24;;;;;;;12.05;3.72;;;8.80;99.90;;;;;;5091521;28;20188;-53
2022/02/19 06:30:10;;;;;;;2.38;1.02;;;8.80;99.90;;;;;;5077623;28;20691;-51
2022/02/19 06:32:53;;;;;;;2.47;1.27;;;8.80;99.90;;;;;;5080406;28;20673;-51
2022/02/19 06:35:26;;;;;;;3.27;0.90;;;8.80;99.90;;;;;;5099928;28;20474;-51
2022/02/19 06:38:07;;;;;;;2.53;1.50;;;8.80;99.90;;;;;;5075553;28;20461;-53
2022/02/19 06:40:50;;;;;;;5.10;1.50;;;8.80;99.90;;;;;;5072011;28;20993;-52
2022/02/19 06:43:19;;;;;;;3.53;1.30;;;8.80;99.90;;;;;;5064713;28;20936;-52
2022/02/19 06:45:57;;;;;;;5.75;1.25;;;8.80;99.90;;;;;;5090285;28;20193;-53
2022/02/19 06:48:30;;;;;;;5.38;1.67;;;8.80;99.90;;;;;;5066540;28;20189;-53
2022/02/19 06:51:01;;;;;;;5.00;1.50;;;8.80;99.90;;;;;;5075526;28;20308;-53
2022/02/19 06:53:42;;;;;;;3.83;1.27;;;8.80;99.90;;;;;;5081435;28;20450;-52
2022/02/19 06:56:34;;;;;;;3.78;1.27;;;8.70;99.90;;;;;;5069081;28;20845;-51
2022/02/19 06:59:52;;;;;;;2.70;1.45;;;8.80;99.90;;;;;;5072103;28;20219;-52
2022/02/19 07:02:59;;;;;;;4.18;0.95;;;8.70;99.90;;;;;;5076704;28;20202;-51
2022/02/19 07:05:44;;;;;;;4.35;1.30;;;8.70;99.90;;;;;;5068682;28;20583;-53
2022/02/19 07:08:44;;;;;;;2.17;1.38;;;8.70;99.90;;;;;;5091832;28;20190;-52
2022/02/19 07:15:20;;;;;;;7.50;1.05;;;8.70;99.90;;;;;;5073657;28;20577;-54
2022/02/19 07:18:19;;;;;;;2.40;1.25;;;8.70;99.90;;;;;;5092178;28;20686;-51
2022/02/19 07:21:10;;;;;;;2.75;1.33;;;8.70;99.90;;;;;;5066239;28;20741;-51
2022/02/19 07:23:40;;;;;;;2.45;1.10;;;8.70;99.90;;;;;;5069207;28;20556;-53
2022/02/19 07:26:10;;;;;;;3.20;1.20;;;8.70;99.90;;;;;;5070921;28;20195;-51
2022/02/19 07:28:44;;;;;;;3.15;1.25;;;8.70;99.90;;;;;;5067016;28;20226;-51
2022/02/19 07:31:15;;;;;;;3.72;1.15;;;8.70;99.90;;;;;;5091857;28;20244;-53
2022/02/19 07:33:45;;;;;;;3.03;1.17;;;8.70;99.90;;;;;;5095742;28;20303;-53
2022/02/19 07:36:23;;;;;;;3.17;1.40;;;8.70;99.90;;;;;;5051284;28;20200;-56
2022/02/19 07:38:53;;;;;;;3.53;1.02;;;8.70;99.90;;;;;;5056576;28;20223;-50
2022/02/19 07:41:21;;;;;;;3.15;1.40;;;8.70;99.90;;;;;;5089649;28;20639;-54
2022/02/19 07:44:16;;;;;;;2.08;1.00;;;8.70;99.90;;;;;;5049086;28;20310;-55
2022/02/19 07:47:23;;;;;;;5.15;1.60;;;8.70;99.90;;;;;;5046860;28;20712;-51
2022/02/19 07:59:15;;;;;;;5.78;1.75;;;8.60;99.90;;;;;;5072874;28;20784;-52
2022/02/19 08:01:43;;;;;;;3.42;1.20;;;8.70;99.90;;;;;;5071434;28;20211;-51
2022/02/19 08:04:12;;;;;;;3.90;1.50;;;8.70;99.90;;;;;;5076939;28;20213;-50
2022/02/19 08:06:40;;;;;;;3.65;1.27;;;8.60;99.90;;;;;;5085650;28;20206;-51
2022/02/19 08:09:08;;;;;;;3.60;1.33;;;8.60;99.90;;;;;;5083145;28;20227;-52
2022/02/19 08:11:39;;;;;;;5.03;1.67;;;8.60;99.90;;;;;;5068309;28;20206;-50
2022/02/19 08:14:08;;;;;;;3.13;1.80;;;8.70;99.90;;;;;;5084581;28;20225;-50
2022/02/19 08:16:36;;;;;;;2.80;1.20;;;8.60;99.90;;;;;;5084511;28;20197;-52
2022/02/19 08:19:07;;;;;;;11.65;2.03;;;8.70;99.90;;;;;;5081128;28;20473;-52
2022/02/19 08:21:37;;;;;;;7.53;2.08;;;8.60;99.90;;;;;;5083750;28;20300;-54
2022/02/19 08:24:10;;;;;;;2.67;1.10;;;8.60;99.90;;;;;;5079006;28;20302;-52
2022/02/19 08:26:40;;;;;;;1.95;1.27;;;8.60;99.90;;;;;;5097485;28;20212;-52
2022/02/19 08:29:10;;;;;;;3.08;1.75;;;8.60;99.90;;;;;;5088901;28;20625;-53
2022/02/19 08:31:39;;;;;;;3.63;1.60;;;8.60;99.90;;;;;;5093249;28;20687;-52
2022/02/19 08:34:07;;;;;;;4.60;1.45;;;8.60;99.90;;;;;;5094895;28;20301;-53
2022/02/19 08:36:35;;;;;;;3.35;1.02;;;8.60;99.90;;;;;;5109919;28;20181;-53
2022/02/19 08:39:04;;;;;;;2.35;1.08;;;8.60;99.90;;;;;;5101083;28;21617;-52
2022/02/19 08:41:32;;;;;;;3.20;1.30;;;8.60;99.90;;;;;;5073084;28;20218;-51
2022/02/19 08:44:03;;;;;;;2.95;1.75;;;8.60;99.90;;;;;;5076089;28;20477;-53
2022/02/19 08:46:32;;;;;;;1.73;1.23;;;8.60;99.90;;;;;;5081092;28;20681;-53
2022/02/19 08:49:01;;;;;;;3.65;1.25;;;8.60;99.90;;;;;;5072752;28;20307;-52
2022/02/19 08:51:35;;;;;;;2.40;1.33;;;8.60;99.90;;;;;;5083979;28;20227;-52
2022/02/19 08:54:04;;;;;;;2.88;1.42;;;8.70;99.90;;;;;;5098142;28;20217;-55
2022/02/19 08:56:32;;;;;;;2.58;0.98;;;8.70;99.90;;;;;;5112349;28;20192;-50
2022/02/19 08:59:02;;;;;;;5.60;1.60;;;8.70;99.90;;;;;;5107607;28;20705;-51
2022/02/19 09:01:30;;;;;;;2.75;1.38;;;8.70;99.90;;;;;;5112450;28;20481;-50
2022/02/19 09:04:02;;;;;;;2.92;1.15;;;8.70;99.90;;;;;;5098507;28;20655;-51
2022/02/19 09:06:31;;;;;;;2.45;1.13;;;8.70;99.90;;;;;;5114157;22;20292;-48
2022/02/19 09:09:00;;;;;;;3.63;1.15;;;8.70;99.90;;;;;;5014882;28;20243;-49
2022/02/19 09:11:30;;;;;;;5.13;1.30;;;8.70;99.90;;;;;;5066283;28;20222;-49
2022/02/19 09:13:59;;;;;;;5.73;1.90;;;8.70;99.90;;;;;;5069610;28;20469;-48
2022/02/19 09:16:29;;;;;;;2.85;1.30;;;8.70;99.90;;;;;;5067813;28;21519;-49
2022/02/19 09:19:03;;;;;;;3.95;1.15;;;8.70;99.90;;;;;;5060946;28;20223;-49
2022/02/19 09:21:58;;;;;;;3.83;1.25;;;8.70;99.90;;;;;;5060283;28;20213;-48
2022/02/19 09:24:39;;;;;;;5.30;1.45;;;8.70;99.90;;;;;;5050504;28;20645;-48
2022/02/19 09:27:09;;;;;;;4.55;0.85;;;8.70;99.90;;;;;;5069448;28;20309;-49
2022/02/19 09:33:30;;;;;;;1.85;0.90;;;8.70;99.90;;;;;;5066487;28;20255;-49
2022/02/19 09:35:59;;;;;;;2.83;1.20;;;8.70;99.90;;;;;;5066019;28;20222;-49
2022/02/19 09:38:29;;;;;;;4.75;1.25;;;8.70;99.90;;;;;;5070839;28;20941;-49
2022/02/19 09:41:07;;;;;;;4.10;1.90;;;8.70;99.90;;;;;;5070629;28;20664;-49
2022/02/19 09:43:41;;;;;;;5.13;1.80;;;8.70;99.90;;;;;;5070127;28;20223;-48
2022/02/19 09:46:15;;;;;;;3.78;1.67;;;8.70;99.90;;;;;;5069362;28;20453;-49
2022/02/19 09:48:47;;;;;;;4.60;1.40;;;8.70;99.90;;;;;;5068690;28;20209;-49
2022/02/19 09:51:16;;;;;;;3.30;2.33;;;8.70;99.90;;;;;;5068392;28;20225;-49
2022/02/19 09:53:45;;;;;;;3.75;1.52;;;8.80;99.90;;;;;;5067720;28;20237;-48
2022/02/19 09:56:17;;;;;;;5.22;1.30;;;8.80;99.90;;;;;;5069010;28;20188;-47
2022/02/19 09:58:46;;;;;;;5.35;1.38;;;8.80;99.90;;;;;;5065143;28;20229;-48
2022/02/19 10:01:18;;;;;;;4.78;1.17;;;8.80;99.90;;;;;;5063565;28;20296;-49
2022/02/19 10:03:56;;;;;;;4.53;1.00;;;8.80;99.90;;;;;;5067129;28;20230;-48
2022/02/19 10:06:28;;;;;;;4.72;1.60;;;8.80;99.90;;;;;;5069291;28;20201;-48
2022/02/19 10:09:13;;;;;;;2.65;1.10;;;8.80;99.90;;;;;;5054662;28;20213;-48
2022/02/19 10:11:42;;;;;;;2.17;1.17;;;8.80;99.90;;;;;;5066548;28;20618;-48
2022/02/19 10:14:21;;;;;;;4.07;1.40;;;8.70;99.90;;;;;;5066076;28;20567;-49
2022/02/19 10:17:16;;;;;;;1.57;1.47;;;8.70;99.90;;;;;;5066374;28;20436;-48
2022/02/19 10:19:51;;;;;;;3.00;1.00;;;8.70;99.90;;;;;;5065950;28;20477;-48
2022/02/19 10:22:22;;;;;;;4.63;1.50;;;8.70;99.90;;;;;;5070875;28;20443;-48
2022/02/19 10:24:53;;;;;;;2.78;1.52;;;8.70;99.90;;;;;;5067021;28;20233;-48
2022/02/19 10:27:21;;;;;;;4.20;1.70;;;8.70;99.90;;;;;;5068121;28;20194;-49
2022/02/19 10:29:53;;;;;;;5.18;1.50;;;8.70;99.90;;;;;;5068391;28;20601;-49
2022/02/19 10:32:22;;;;;;;5.55;1.77;;;8.70;99.90;;;;;;5070094;28;20253;-49
2022/02/19 10:35:06;;;;;;;3.08;1.10;;;8.70;99.90;;;;;;5059685;28;20219;-48
2022/02/19 10:37:46;;;;;;;2.42;1.02;;;8.70;99.90;;;;;;5054427;28;20274;-49
2022/02/19 10:40:36;;;;;;;3.97;1.20;;;8.70;99.90;;;;;;5069636;28;20689;-48
2022/02/19 10:43:06;;;;;;;2.17;1.10;;;8.70;99.90;;;;;;5054859;28;20705;-48
2022/02/19 10:45:36;;;;;;;2.30;1.05;;;8.70;99.90;;;;;;5062630;28;20280;-49
2022/02/19 10:48:16;;;;;;;1.43;0.90;;;8.70;99.90;;;;;;5057961;28;20662;-48
2022/02/19 10:50:47;;;;;;;1.75;0.90;;;8.70;99.90;;;;;;5052388;28;20470;-49
2022/02/19 10:53:24;;;;;;;2.65;1.00;;;8.70;99.90;;;;;;5048618;28;20304;-48
2022/02/19 10:55:53;;;;;;;3.22;1.52;;;8.60;99.90;;;;;;5067732;28;20584;-48
2022/02/19 10:58:22;;;;;;;5.22;1.90;;;8.60;99.90;;;;;;5062112;28;20198;-48
2022/02/19 11:00:50;;;;;;;2.85;1.35;;;8.60;99.90;;;;;;5066081;28;20271;-49
2022/02/19 11:03:21;;;;;;;4.80;1.25;;;8.60;99.90;;;;;;5067612;28;20963;-48
2022/02/19 11:05:51;;;;;;;2.40;1.13;;;8.60;99.90;;;;;;5066494;28;20198;-48
2022/02/19 11:08:22;;;;;;;5.65;1.20;;;8.60;99.90;;;;;;5050212;28;20754;-48
2022/02/19 11:10:52;;;;;;;6.35;1.67;;;8.60;99.90;;;;;;5069688;28;20244;-48
2022/02/19 11:13:20;;;;;;;3.95;1.13;;;8.60;99.90;;;;;;5049423;28;20218;-49
2022/02/19 11:15:48;;;;;;;1.77;0.70;;;8.60;99.90;;;;;;5066370;28;20684;-48
2022/02/19 11:18:17;;;;;;;1.98;1.20;;;8.60;99.90;;;;;;5066707;28;20257;-48
2022/02/19 11:20:47;;;;;;;4.28;1.50;;;8.60;99.90;;;;;;5057944;28;20814;-47
2022/02/19 11:23:17;;;;;;;4.68;1.55;;;8.60;99.90;;;;;;5067950;28;20208;-48
2022/02/19 11:25:46;;;;;;;4.38;1.60;;;8.60;99.90;;;;;;5067446;28;20426;-48
2022/02/19 11:28:16;;;;;;;2.67;0.88;;;8.60;99.90;;;;;;5065317;28;20283;-49
2022/02/19 11:30:51;;;;;;;4.43;1.45;;;8.60;99.90;;;;;;5060552;28;20659;-48
2022/02/19 11:33:21;;;;;;;5.43;1.27;;;8.70;99.90;;;;;;5054309;28;20201;-49
2022/02/19 11:35:49;;;;;;;4.18;1.27;;;8.70;99.90;;;;;;5060100;28;20196;-48
2022/02/19 11:38:27;;;;;;;5.13;1.17;;;8.60;99.90;;;;;;5068576;28;20188;-49
2022/02/19 11:40:56;;;;;;;4.35;1.00;;;8.60;99.90;;;;;;5069087;28;20211;-48
2022/02/19 11:43:38;;;;;;;3.42;1.48;;;8.60;99.90;;;;;;5068248;28;20195;-48
2022/02/19 11:46:31;;;;;;;2.50;1.45;;;8.60;99.90;;;;;;5052941;28;20205;-48
2022/02/19 11:49:17;;;;;;;5.57;1.43;;;8.60;99.90;;;;;;5064479;28;20495;-48
2022/02/19 11:51:45;;;;;;;5.75;1.38;;;8.60;99.90;;;;;;5065617;28;20442;-48
2022/02/19 11:54:37;;;;;;;7.97;1.27;;;8.60;99.90;;;;;;5067969;28;20221;-49
2022/02/19 11:57:14;;;;;;;5.32;1.75;;;8.60;99.90;;;;;;5069300;28;20293;-49
2022/02/19 11:59:43;;;;;;;2.13;1.50;;;8.60;99.90;;;;;;5066492;28;20241;-49
2022/02/19 12:02:13;;;;;;;3.60;1.42;;;8.60;99.90;;;;;;5068995;28;20428;-49
2022/02/19 12:04:42;;;;;;;4.28;1.23;;;8.60;99.90;;;;;;5064666;28;20232;-48
2022/02/19 12:07:12;;;;;;;2.00;1.00;;;8.60;99.90;;;;;;5065192;28;20210;-49
2022/02/19 12:10:04;;;;;;;2.38;1.10;;;8.60;99.90;;;;;;5070236;28;20226;-49
2022/02/19 12:13:08;;;;;;;6.65;1.63;;;8.60;99.90;;;;;;5058906;28;20616;-48
2022/02/19 12:15:37;;;;;;;5.88;1.10;;;8.60;99.90;;;;;;5058472;28;20226;-49
2022/02/19 12:18:09;;;;;;;3.80;1.20;;;8.60;99.90;;;;;;5054279;28;20639;-48
2022/02/19 12:20:38;;;;;;;4.80;0.90;;;8.60;99.90;;;;;;5061926;28;20212;-49
2022/02/19 12:23:10;;;;;;;3.42;1.58;;;8.60;99.90;;;;;;5072161;28;20660;-48
2022/02/19 12:26:10;;;;;;;5.28;1.02;;;8.60;99.90;;;;;;5071923;28;20244;-49
2022/02/19 12:28:40;;;;;;;1.40;1.02;;;8.60;99.90;;;;;;5050712;28;20279;-50
2022/02/19 12:31:31;;;;;;;2.92;1.05;;;8.60;99.90;;;;;;5035496;28;20214;-49
2022/02/19 12:34:09;;;;;;;2.10;0.90;;;8.60;99.90;;;;;;5069225;28;20300;-50
2022/02/19 12:36:38;;;;;;;3.45;0.90;;;8.60;99.90;;;;;;5054528;28;20688;-49
2022/02/19 12:39:06;;;;;;;1.05;0.75;;;8.50;99.90;;;;;;5068591;28;20223;-48
2022/02/19 12:41:37;;;;;;;3.25;0.95;;;8.60;99.90;;;;;;5071439;28;20264;-48
2022/02/19 12:44:09;;;;;;;3.95;1.40;;;8.50;99.90;;;;;;5071026;28;20277;-49
2022/02/19 12:46:39;;;;;;;2.28;1.05;;;8.50;99.90;;;;;;5066992;28;20189;-48
2022/02/19 12:49:09;;;;;;;5.63;1.73;;;8.50;99.90;;;;;;5065014;28;20311;-49
2022/02/19 12:51:53;;;;;;;3.53;0.90;;;8.50;99.90;;;;;;5070123;28;20209;-48
2022/02/19 12:54:39;;;;;;;6.05;1.15;;;8.50;99.90;;;;;;5070643;28;20228;-49
2022/02/19 12:57:11;;;;;;;3.88;1.08;;;8.60;99.90;;;;;;5070854;28;20195;-49
2022/02/19 12:59:42;;;;;;;2.97;1.20;;;8.60;99.90;;;;;;5064373;28;20967;-48
2022/02/19 13:02:12;;;;;;;1.63;0.88;;;8.60;99.90;;;;;;5071493;28;20495;-49
2022/02/19 13:04:41;;;;;;;3.65;0.90;;;8.60;99.90;;;;;;5069254;28;20216;-48
2022/02/19 13:07:11;;;;;;;2.95;1.33;;;8.60;99.90;;;;;;5072453;28;20206;-48
2022/02/19 13:09:39;;;;;;;3.53;1.02;;;8.60;99.90;;;;;;5070287;28;20239;-48
2022/02/19 13:12:09;;;;;;;2.80;1.48;;;8.60;99.90;;;;;;5069176;28;21810;-49
2022/02/19 13:14:49;;;;;;;3.28;1.00;;;8.60;99.90;;;;;;5033329;28;20705;-48
2022/02/19 13:17:17;;;;;;;3.72;0.90;;;8.60;99.90;;;;;;5064021;28;20198;-48
2022/02/19 13:19:45;;;;;;;1.38;1.00;;;8.60;99.90;;;;;;5066050;28;20217;-48
2022/02/19 13:22:15;;;;;;;3.53;0.77;;;8.60;99.90;;;;;;5070081;28;20562;-48
2022/02/19 13:24:45;;;;;;;1.05;0.75;;;8.60;99.90;;;;;;5065752;28;20279;-48
2022/02/19 13:27:17;;;;;;;3.45;0.73;;;8.60;99.90;;;;;;5072717;28;20191;-48
2022/02/19 13:29:50;;;;;;;3.13;0.93;;;8.60;99.90;;;;;;5070476;28;20645;-48
2022/02/19 13:32:22;;;;;;;2.40;2.05;;;8.60;99.90;;;;;;5071358;28;20194;-48
2022/02/19 13:34:52;;;;;;;2.90;1.17;;;8.60;99.90;;;;;;5064658;28;20311;-48
2022/02/19 13:37:21;;;;;;;2.72;0.90;;;8.60;99.90;;;;;;5052611;28;20226;-48
2022/02/19 13:39:52;;;;;;;1.88;1.60;;;8.60;99.90;;;;;;5070450;28;20233;-48
2022/02/19 13:42:43;;;;;;;0.98;0.60;;;8.60;99.90;;;;;;5044815;28;20215;-49
2022/02/19 13:45:25;;;;;;;1.60;0.73;;;8.60;99.90;;;;;;5067032;28;20712;-48
2022/02/19 13:47:54;;;;;;;2.45;1.27;;;8.60;99.90;;;;;;5071441;28;20200;-48